sensor_id;sensor_type;location;lat;lon;timestamp;P1;durP1;ratioP1;P2;durP2;ratioP2
10319;SDS011;5205;52.168;5.420;2023-10-19T00:00:47;8.60;;;5.70;;
10319;SDS011;5205;52.168;5.420;2023-10-19T00:03:14;10.95;;;6.28;;
10319;SDS011;5205;52.168;5.420;2023-10-19T00:05:42;10.60;;;6.43;;
10319;SDS011;5205;52.168;5.420;2023-10-19T00:08:08;9.30;;;6.20;;
10319;SDS011;5205;52.168;5.420;2023-10-19T00:10:41;9.90;;;6.68;;
10319;SDS011;5205;52.168;5.420;2023-10-19T00:13:09;8.75;;;6.57;;
10319;SDS011;5205;52.168;5.420;2023-10-19T00:15:37;10.95;;;6.70;;
10319;SDS011;5205;52.168;5.420;2023-10-19T00:18:05;12.50;;;7.65;;
10319;SDS011;5205;52.168;5.420;2023-10-19T00:20:46;11.10;;;7.28;;
10319;SDS011;5205;52.168;5.420;2023-10-19T00:23:20;11.15;;;7.00;;
10319;SDS011;5205;52.168;5.420;2023-10-19T00:25:57;12.52;;;7.95;;
10319;SDS011;5205;52.168;5.420;2023-10-19T00:30:53;10.40;;;7.38;;
10319;SDS011;5205;52.168;5.420;2023-10-19T00:33:25;11.82;;;7.55;;
10319;SDS011;5205;52.168;5.420;2023-10-19T00:35:53;11.90;;;7.38;;
10319;SDS011;5205;52.168;5.420;2023-10-19T00:38:25;11.50;;;7.65;;
10319;SDS011;5205;52.168;5.420;2023-10-19T00:41:06;14.50;;;8.60;;
10319;SDS011;5205;52.168;5.420;2023-10-19T00:43:37;14.18;;;8.73;;
10319;SDS011;5205;52.168;5.420;2023-10-19T00:46:10;12.98;;;8.02;;
10319;SDS011;5205;52.168;5.420;2023-10-19T00:48:48;13.73;;;8.75;;
10319;SDS011;5205;52.168;5.420;2023-10-19T00:51:16;14.95;;;9.38;;
10319;SDS011;5205;52.168;5.420;2023-10-19T00:53:53;12.05;;;7.60;;
10319;SDS011;5205;52.168;5.420;2023-10-19T00:56:21;14.82;;;8.20;;
10319;SDS011;5205;52.168;5.420;2023-10-19T00:58:51;16.77;;;9.35;;
10319;SDS011;5205;52.168;5.420;2023-10-19T01:01:24;13.57;;;8.38;;
10319;SDS011;5205;52.168;5.420;2023-10-19T01:03:54;17.25;;;9.10;;
10319;SDS011;5205;52.168;5.420;2023-10-19T01:06:22;13.50;;;8.75;;
10319;SDS011;5205;52.168;5.420;2023-10-19T01:08:50;16.77;;;9.30;;
10319;SDS011;5205;52.168;5.420;2023-10-19T01:11:17;14.20;;;9.20;;
10319;SDS011;5205;52.168;5.420;2023-10-19T01:13:46;14.68;;;9.43;;
10319;SDS011;5205;52.168;5.420;2023-10-19T01:16:13;14.60;;;9.15;;
10319;SDS011;5205;52.168;5.420;2023-10-19T01:18:48;19.38;;;9.75;;
10319;SDS011;5205;52.168;5.420;2023-10-19T01:21:18;14.10;;;9.48;;
10319;SDS011;5205;52.168;5.420;2023-10-19T01:23:47;20.13;;;9.98;;
10319;SDS011;5205;52.168;5.420;2023-10-19T01:26:15;14.35;;;9.20;;
10319;SDS011;5205;52.168;5.420;2023-10-19T01:28:47;18.05;;;10.10;;
10319;SDS011;5205;52.168;5.420;2023-10-19T01:31:17;20.17;;;11.00;;
10319;SDS011;5205;52.168;5.420;2023-10-19T01:33:56;17.02;;;9.93;;
10319;SDS011;5205;52.168;5.420;2023-10-19T01:36:26;16.40;;;11.05;;
10319;SDS011;5205;52.168;5.420;2023-10-19T01:38:54;21.77;;;10.20;;
10319;SDS011;5205;52.168;5.420;2023-10-19T01:41:25;20.52;;;10.75;;
10319;SDS011;5205;52.168;5.420;2023-10-19T01:43:52;17.40;;;10.35;;
10319;SDS011;5205;52.168;5.420;2023-10-19T01:46:20;16.60;;;11.13;;
10319;SDS011;5205;52.168;5.420;2023-10-19T01:48:47;15.70;;;10.82;;
10319;SDS011;5205;52.168;5.420;2023-10-19T01:51:18;17.35;;;10.75;;
10319;SDS011;5205;52.168;5.420;2023-10-19T01:53:45;20.67;;;10.95;;
10319;SDS011;5205;52.168;5.420;2023-10-19T01:56:15;22.50;;;11.70;;
10319;SDS011;5205;52.168;5.420;2023-10-19T01:58:42;18.33;;;10.73;;
10319;SDS011;5205;52.168;5.420;2023-10-19T02:01:11;18.20;;;10.98;;
10319;SDS011;5205;52.168;5.420;2023-10-19T02:03:44;20.00;;;10.95;;
10319;SDS011;5205;52.168;5.420;2023-10-19T02:06:12;20.15;;;10.85;;
10319;SDS011;5205;52.168;5.420;2023-10-19T02:08:44;18.63;;;10.70;;
10319;SDS011;5205;52.168;5.420;2023-10-19T02:11:12;19.95;;;10.32;;
10319;SDS011;5205;52.168;5.420;2023-10-19T02:13:44;17.65;;;10.48;;
10319;SDS011;5205;52.168;5.420;2023-10-19T02:16:11;17.92;;;10.35;;
10319;SDS011;5205;52.168;5.420;2023-10-19T02:18:38;19.35;;;10.77;;
10319;SDS011;5205;52.168;5.420;2023-10-19T02:21:05;17.88;;;10.18;;
10319;SDS011;5205;52.168;5.420;2023-10-19T02:23:32;21.15;;;10.93;;
10319;SDS011;5205;52.168;5.420;2023-10-19T02:25:59;20.23;;;9.45;;
10319;SDS011;5205;52.168;5.420;2023-10-19T02:28:28;20.10;;;9.60;;
10319;SDS011;5205;52.168;5.420;2023-10-19T02:30:58;16.58;;;9.75;;
10319;SDS011;5205;52.168;5.420;2023-10-19T02:33:36;17.58;;;10.75;;
10319;SDS011;5205;52.168;5.420;2023-10-19T02:38:29;16.85;;;10.20;;
10319;SDS011;5205;52.168;5.420;2023-10-19T02:40:58;16.40;;;10.02;;
10319;SDS011;5205;52.168;5.420;2023-10-19T02:43:24;18.17;;;10.27;;
10319;SDS011;5205;52.168;5.420;2023-10-19T02:45:51;16.63;;;10.05;;
10319;SDS011;5205;52.168;5.420;2023-10-19T02:48:19;18.80;;;10.90;;
10319;SDS011;5205;52.168;5.420;2023-10-19T02:50:49;20.35;;;9.82;;
10319;SDS011;5205;52.168;5.420;2023-10-19T02:53:15;15.77;;;9.98;;
10319;SDS011;5205;52.168;5.420;2023-10-19T02:55:44;19.30;;;10.45;;
10319;SDS011;5205;52.168;5.420;2023-10-19T02:58:10;14.98;;;9.45;;
10319;SDS011;5205;52.168;5.420;2023-10-19T03:00:38;13.65;;;8.32;;
10319;SDS011;5205;52.168;5.420;2023-10-19T03:03:05;13.88;;;8.48;;
10319;SDS011;5205;52.168;5.420;2023-10-19T03:05:34;15.73;;;8.55;;
10319;SDS011;5205;52.168;5.420;2023-10-19T03:08:01;19.33;;;9.90;;
10319;SDS011;5205;52.168;5.420;2023-10-19T03:10:31;17.40;;;9.68;;
10319;SDS011;5205;52.168;5.420;2023-10-19T03:13:03;13.68;;;8.75;;
10319;SDS011;5205;52.168;5.420;2023-10-19T03:15:31;18.92;;;9.45;;
10319;SDS011;5205;52.168;5.420;2023-10-19T03:17:58;15.95;;;8.27;;
10319;SDS011;5205;52.168;5.420;2023-10-19T03:20:26;16.15;;;8.90;;
10319;SDS011;5205;52.168;5.420;2023-10-19T03:22:53;14.88;;;8.95;;
10319;SDS011;5205;52.168;5.420;2023-10-19T03:25:23;13.13;;;8.63;;
10319;SDS011;5205;52.168;5.420;2023-10-19T03:28:08;15.75;;;8.88;;
10319;SDS011;5205;52.168;5.420;2023-10-19T03:30:37;14.50;;;8.90;;
10319;SDS011;5205;52.168;5.420;2023-10-19T03:33:04;16.13;;;8.00;;
10319;SDS011;5205;52.168;5.420;2023-10-19T03:35:33;18.98;;;8.65;;
10319;SDS011;5205;52.168;5.420;2023-10-19T03:38:02;14.57;;;8.40;;
10319;SDS011;5205;52.168;5.420;2023-10-19T03:40:33;13.95;;;8.43;;
10319;SDS011;5205;52.168;5.420;2023-10-19T03:43:04;14.38;;;8.05;;
10319;SDS011;5205;52.168;5.420;2023-10-19T03:45:42;13.27;;;8.07;;
10319;SDS011;5205;52.168;5.420;2023-10-19T03:48:15;14.85;;;8.15;;
10319;SDS011;5205;52.168;5.420;2023-10-19T03:50:43;15.65;;;8.68;;
10319;SDS011;5205;52.168;5.420;2023-10-19T03:53:12;15.82;;;8.07;;
10319;SDS011;5205;52.168;5.420;2023-10-19T03:55:40;13.88;;;8.23;;
10319;SDS011;5205;52.168;5.420;2023-10-19T03:58:08;15.20;;;7.55;;
10319;SDS011;5205;52.168;5.420;2023-10-19T04:00:37;19.02;;;8.13;;
10319;SDS011;5205;52.168;5.420;2023-10-19T04:03:04;13.45;;;7.72;;
10319;SDS011;5205;52.168;5.420;2023-10-19T04:05:32;18.42;;;8.25;;
10319;SDS011;5205;52.168;5.420;2023-10-19T04:08:04;16.95;;;8.02;;
10319;SDS011;5205;52.168;5.420;2023-10-19T04:10:39;11.55;;;6.53;;
10319;SDS011;5205;52.168;5.420;2023-10-19T04:13:09;14.10;;;7.65;;
10319;SDS011;5205;52.168;5.420;2023-10-19T04:15:37;11.50;;;6.93;;
10319;SDS011;5205;52.168;5.420;2023-10-19T04:18:04;15.63;;;7.93;;
10319;SDS011;5205;52.168;5.420;2023-10-19T04:20:34;13.43;;;6.78;;
10319;SDS011;5205;52.168;5.420;2023-10-19T04:25:36;16.73;;;6.75;;
10319;SDS011;5205;52.168;5.420;2023-10-19T04:28:05;11.15;;;6.10;;
10319;SDS011;5205;52.168;5.420;2023-10-19T04:30:32;18.02;;;7.10;;
10319;SDS011;5205;52.168;5.420;2023-10-19T04:33:02;14.45;;;5.90;;
10319;SDS011;5205;52.168;5.420;2023-10-19T04:35:33;13.63;;;6.72;;
10319;SDS011;5205;52.168;5.420;2023-10-19T04:38:01;10.05;;;5.75;;
10319;SDS011;5205;52.168;5.420;2023-10-19T04:40:29;10.55;;;6.25;;
10319;SDS011;5205;52.168;5.420;2023-10-19T04:42:57;13.90;;;5.70;;
10319;SDS011;5205;52.168;5.420;2023-10-19T04:45:26;9.95;;;5.50;;
10319;SDS011;5205;52.168;5.420;2023-10-19T04:47:54;15.95;;;5.82;;
10319;SDS011;5205;52.168;5.420;2023-10-19T04:50:21;11.52;;;5.43;;
10319;SDS011;5205;52.168;5.420;2023-10-19T04:52:49;12.20;;;4.60;;
10319;SDS011;5205;52.168;5.420;2023-10-19T04:55:16;12.27;;;5.75;;
10319;SDS011;5205;52.168;5.420;2023-10-19T04:57:43;16.67;;;4.85;;
10319;SDS011;5205;52.168;5.420;2023-10-19T05:00:10;10.57;;;5.18;;
10319;SDS011;5205;52.168;5.420;2023-10-19T05:02:39;8.23;;;4.35;;
10319;SDS011;5205;52.168;5.420;2023-10-19T05:05:06;14.18;;;4.57;;
10319;SDS011;5205;52.168;5.420;2023-10-19T05:07:34;12.02;;;4.68;;
10319;SDS011;5205;52.168;5.420;2023-10-19T05:10:01;14.18;;;4.32;;
10319;SDS011;5205;52.168;5.420;2023-10-19T05:12:30;11.45;;;4.20;;
10319;SDS011;5205;52.168;5.420;2023-10-19T05:14:58;8.45;;;3.95;;
10319;SDS011;5205;52.168;5.420;2023-10-19T05:17:25;9.07;;;3.83;;
10319;SDS011;5205;52.168;5.420;2023-10-19T05:19:53;12.88;;;4.22;;
10319;SDS011;5205;52.168;5.420;2023-10-19T05:22:20;5.70;;;4.05;;
10319;SDS011;5205;52.168;5.420;2023-10-19T05:24:49;7.45;;;3.83;;
10319;SDS011;5205;52.168;5.420;2023-10-19T05:27:16;6.80;;;3.03;;
10319;SDS011;5205;52.168;5.420;2023-10-19T05:29:44;9.00;;;2.85;;
10319;SDS011;5205;52.168;5.420;2023-10-19T05:32:12;6.10;;;3.00;;
10319;SDS011;5205;52.168;5.420;2023-10-19T05:34:39;9.93;;;2.78;;
10319;SDS011;5205;52.168;5.420;2023-10-19T05:37:07;10.25;;;3.10;;
10319;SDS011;5205;52.168;5.420;2023-10-19T05:39:35;6.07;;;2.58;;
10319;SDS011;5205;52.168;5.420;2023-10-19T05:42:02;6.32;;;2.40;;
10319;SDS011;5205;52.168;5.420;2023-10-19T05:44:31;11.60;;;2.45;;
10319;SDS011;5205;52.168;5.420;2023-10-19T05:46:58;8.82;;;3.60;;
10319;SDS011;5205;52.168;5.420;2023-10-19T05:49:25;5.45;;;2.53;;
10319;SDS011;5205;52.168;5.420;2023-10-19T05:51:53;6.30;;;1.92;;
10319;SDS011;5205;52.168;5.420;2023-10-19T05:54:21;8.65;;;1.80;;
10319;SDS011;5205;52.168;5.420;2023-10-19T05:56:49;10.93;;;2.00;;
10319;SDS011;5205;52.168;5.420;2023-10-19T05:59:17;5.00;;;1.73;;
10319;SDS011;5205;52.168;5.420;2023-10-19T06:01:44;4.60;;;1.88;;
10319;SDS011;5205;52.168;5.420;2023-10-19T06:04:12;6.25;;;1.65;;
10319;SDS011;5205;52.168;5.420;2023-10-19T06:06:40;5.18;;;1.88;;
10319;SDS011;5205;52.168;5.420;2023-10-19T06:09:07;4.70;;;1.80;;
10319;SDS011;5205;52.168;5.420;2023-10-19T06:11:35;8.25;;;1.75;;
10319;SDS011;5205;52.168;5.420;2023-10-19T06:14:07;4.10;;;2.05;;
10319;SDS011;5205;52.168;5.420;2023-10-19T06:16:34;8.25;;;1.92;;
10319;SDS011;5205;52.168;5.420;2023-10-19T06:19:02;3.67;;;1.98;;
10319;SDS011;5205;52.168;5.420;2023-10-19T06:21:29;6.43;;;1.88;;
10319;SDS011;5205;52.168;5.420;2023-10-19T06:23:56;4.28;;;2.22;;
10319;SDS011;5205;52.168;5.420;2023-10-19T06:26:24;3.15;;;1.73;;
10319;SDS011;5205;52.168;5.420;2023-10-19T06:28:52;4.13;;;1.63;;
10319;SDS011;5205;52.168;5.420;2023-10-19T06:31:23;4.85;;;1.83;;
10319;SDS011;5205;52.168;5.420;2023-10-19T06:33:51;4.63;;;2.08;;
10319;SDS011;5205;52.168;5.420;2023-10-19T06:36:18;8.73;;;1.52;;
10319;SDS011;5205;52.168;5.420;2023-10-19T06:38:45;4.40;;;1.60;;
10319;SDS011;5205;52.168;5.420;2023-10-19T06:41:14;2.60;;;1.55;;
10319;SDS011;5205;52.168;5.420;2023-10-19T06:43:43;6.05;;;2.10;;
10319;SDS011;5205;52.168;5.420;2023-10-19T06:46:12;8.18;;;2.08;;
10319;SDS011;5205;52.168;5.420;2023-10-19T06:48:40;7.20;;;2.10;;
10319;SDS011;5205;52.168;5.420;2023-10-19T06:51:07;5.60;;;2.30;;
10319;SDS011;5205;52.168;5.420;2023-10-19T06:53:34;10.43;;;2.08;;
10319;SDS011;5205;52.168;5.420;2023-10-19T06:56:01;7.63;;;1.80;;
10319;SDS011;5205;52.168;5.420;2023-10-19T06:58:29;3.45;;;1.90;;
10319;SDS011;5205;52.168;5.420;2023-10-19T07:00:56;6.93;;;1.98;;
10319;SDS011;5205;52.168;5.420;2023-10-19T07:03:26;6.10;;;2.08;;
10319;SDS011;5205;52.168;5.420;2023-10-19T07:05:54;5.68;;;1.85;;
10319;SDS011;5205;52.168;5.420;2023-10-19T07:08:21;12.95;;;2.40;;
10319;SDS011;5205;52.168;5.420;2023-10-19T07:10:49;5.38;;;2.40;;
10319;SDS011;5205;52.168;5.420;2023-10-19T07:13:16;4.80;;;1.88;;
10319;SDS011;5205;52.168;5.420;2023-10-19T07:15:45;8.35;;;2.35;;
10319;SDS011;5205;52.168;5.420;2023-10-19T07:18:12;8.80;;;2.42;;
10319;SDS011;5205;52.168;5.420;2023-10-19T07:20:41;6.72;;;2.42;;
10319;SDS011;5205;52.168;5.420;2023-10-19T07:23:08;4.45;;;2.30;;
10319;SDS011;5205;52.168;5.420;2023-10-19T07:25:44;6.93;;;2.35;;
10319;SDS011;5205;52.168;5.420;2023-10-19T07:28:13;6.15;;;2.38;;
10319;SDS011;5205;52.168;5.420;2023-10-19T07:30:40;7.57;;;2.47;;
10319;SDS011;5205;52.168;5.420;2023-10-19T07:33:09;4.95;;;2.38;;
10319;SDS011;5205;52.168;5.420;2023-10-19T07:35:44;5.30;;;2.10;;
10319;SDS011;5205;52.168;5.420;2023-10-19T07:38:12;5.40;;;2.15;;
10319;SDS011;5205;52.168;5.420;2023-10-19T07:40:39;12.48;;;2.33;;
10319;SDS011;5205;52.168;5.420;2023-10-19T07:43:06;7.80;;;2.33;;
10319;SDS011;5205;52.168;5.420;2023-10-19T07:45:34;6.30;;;2.22;;
10319;SDS011;5205;52.168;5.420;2023-10-19T07:48:02;8.57;;;2.72;;
10319;SDS011;5205;52.168;5.420;2023-10-19T07:50:32;4.90;;;2.03;;
10319;SDS011;5205;52.168;5.420;2023-10-19T07:53:00;9.25;;;2.50;;
10319;SDS011;5205;52.168;5.420;2023-10-19T07:55:27;6.85;;;2.90;;
10319;SDS011;5205;52.168;5.420;2023-10-19T07:57:56;5.85;;;2.58;;
10319;SDS011;5205;52.168;5.420;2023-10-19T08:00:25;4.15;;;2.20;;
10319;SDS011;5205;52.168;5.420;2023-10-19T08:02:54;7.20;;;2.38;;
10319;SDS011;5205;52.168;5.420;2023-10-19T08:05:21;7.35;;;2.30;;
10319;SDS011;5205;52.168;5.420;2023-10-19T08:07:48;10.93;;;2.63;;
10319;SDS011;5205;52.168;5.420;2023-10-19T08:10:18;8.65;;;2.15;;
10319;SDS011;5205;52.168;5.420;2023-10-19T08:12:46;9.55;;;2.33;;
10319;SDS011;5205;52.168;5.420;2023-10-19T08:15:14;6.50;;;2.50;;
10319;SDS011;5205;52.168;5.420;2023-10-19T08:17:41;9.13;;;2.40;;
10319;SDS011;5205;52.168;5.420;2023-10-19T08:20:09;4.97;;;2.30;;
10319;SDS011;5205;52.168;5.420;2023-10-19T08:22:41;9.95;;;3.00;;
10319;SDS011;5205;52.168;5.420;2023-10-19T08:25:08;8.27;;;2.58;;
10319;SDS011;5205;52.168;5.420;2023-10-19T08:27:40;6.75;;;2.28;;
10319;SDS011;5205;52.168;5.420;2023-10-19T08:30:10;6.70;;;2.50;;
10319;SDS011;5205;52.168;5.420;2023-10-19T08:32:37;11.00;;;3.22;;
10319;SDS011;5205;52.168;5.420;2023-10-19T08:35:05;4.63;;;2.08;;
10319;SDS011;5205;52.168;5.420;2023-10-19T08:37:32;8.20;;;2.30;;
10319;SDS011;5205;52.168;5.420;2023-10-19T08:39:59;7.70;;;2.55;;
10319;SDS011;5205;52.168;5.420;2023-10-19T08:42:27;7.20;;;1.95;;
10319;SDS011;5205;52.168;5.420;2023-10-19T08:44:56;6.18;;;2.28;;
10319;SDS011;5205;52.168;5.420;2023-10-19T08:47:25;7.38;;;2.38;;
10319;SDS011;5205;52.168;5.420;2023-10-19T08:49:52;5.25;;;1.98;;
10319;SDS011;5205;52.168;5.420;2023-10-19T08:52:20;5.97;;;1.80;;
10319;SDS011;5205;52.168;5.420;2023-10-19T08:54:48;7.13;;;2.15;;
10319;SDS011;5205;52.168;5.420;2023-10-19T08:57:15;8.75;;;2.50;;
10319;SDS011;5205;52.168;5.420;2023-10-19T08:59:43;4.75;;;1.90;;
10319;SDS011;5205;52.168;5.420;2023-10-19T09:02:13;8.50;;;2.20;;
10319;SDS011;5205;52.168;5.420;2023-10-19T09:04:41;7.70;;;2.25;;
10319;SDS011;5205;52.168;5.420;2023-10-19T09:07:08;11.48;;;2.47;;
10319;SDS011;5205;52.168;5.420;2023-10-19T09:09:36;7.88;;;2.70;;
10319;SDS011;5205;52.168;5.420;2023-10-19T09:12:06;8.40;;;2.28;;
10319;SDS011;5205;52.168;5.420;2023-10-19T09:14:35;9.43;;;2.45;;
10319;SDS011;5205;52.168;5.420;2023-10-19T09:17:06;4.88;;;1.88;;
10319;SDS011;5205;52.168;5.420;2023-10-19T09:19:38;9.73;;;2.65;;
10319;SDS011;5205;52.168;5.420;2023-10-19T09:22:06;10.05;;;3.00;;
10319;SDS011;5205;52.168;5.420;2023-10-19T09:24:41;12.35;;;3.17;;
10319;SDS011;5205;52.168;5.420;2023-10-19T09:27:10;8.80;;;2.45;;
10319;SDS011;5205;52.168;5.420;2023-10-19T09:29:37;6.95;;;2.55;;
10319;SDS011;5205;52.168;5.420;2023-10-19T09:32:05;11.65;;;2.47;;
10319;SDS011;5205;52.168;5.420;2023-10-19T09:34:33;5.28;;;2.08;;
10319;SDS011;5205;52.168;5.420;2023-10-19T09:37:03;10.93;;;2.65;;
10319;SDS011;5205;52.168;5.420;2023-10-19T09:39:30;6.28;;;2.05;;
10319;SDS011;5205;52.168;5.420;2023-10-19T09:42:00;7.40;;;2.38;;
10319;SDS011;5205;52.168;5.420;2023-10-19T09:44:30;5.97;;;2.38;;
10319;SDS011;5205;52.168;5.420;2023-10-19T09:46:59;4.93;;;2.30;;
10319;SDS011;5205;52.168;5.420;2023-10-19T09:49:30;8.55;;;2.58;;
10319;SDS011;5205;52.168;5.420;2023-10-19T09:51:57;6.82;;;2.25;;
10319;SDS011;5205;52.168;5.420;2023-10-19T09:54:27;5.28;;;2.28;;
10319;SDS011;5205;52.168;5.420;2023-10-19T09:57:02;6.97;;;2.28;;
10319;SDS011;5205;52.168;5.420;2023-10-19T09:59:31;5.75;;;2.40;;
10319;SDS011;5205;52.168;5.420;2023-10-19T10:02:04;5.60;;;2.05;;
10319;SDS011;5205;52.168;5.420;2023-10-19T10:04:31;7.95;;;2.47;;
10319;SDS011;5205;52.168;5.420;2023-10-19T10:07:00;10.32;;;2.47;;
10319;SDS011;5205;52.168;5.420;2023-10-19T10:09:32;14.52;;;2.75;;
10319;SDS011;5205;52.168;5.420;2023-10-19T10:12:17;7.20;;;2.30;;
10319;SDS011;5205;52.168;5.420;2023-10-19T10:14:57;7.15;;;2.78;;
10319;SDS011;5205;52.168;5.420;2023-10-19T10:17:26;9.27;;;2.33;;
10319;SDS011;5205;52.168;5.420;2023-10-19T10:19:54;8.43;;;2.97;;
10319;SDS011;5205;52.168;5.420;2023-10-19T10:22:24;6.95;;;2.05;;
10319;SDS011;5205;52.168;5.420;2023-10-19T10:24:56;11.70;;;2.83;;
10319;SDS011;5205;52.168;5.420;2023-10-19T10:27:23;8.88;;;2.40;;
10319;SDS011;5205;52.168;5.420;2023-10-19T10:29:54;17.77;;;4.13;;
10319;SDS011;5205;52.168;5.420;2023-10-19T10:35:07;8.48;;;3.00;;
10319;SDS011;5205;52.168;5.420;2023-10-19T10:37:35;6.53;;;2.38;;
10319;SDS011;5205;52.168;5.420;2023-10-19T10:40:05;8.55;;;2.55;;
10319;SDS011;5205;52.168;5.420;2023-10-19T10:42:32;7.53;;;2.55;;
10319;SDS011;5205;52.168;5.420;2023-10-19T10:45:00;11.68;;;2.10;;
10319;SDS011;5205;52.168;5.420;2023-10-19T10:47:30;6.38;;;2.65;;
10319;SDS011;5205;52.168;5.420;2023-10-19T10:50:00;6.65;;;2.60;;
10319;SDS011;5205;52.168;5.420;2023-10-19T10:52:28;9.52;;;2.50;;
10319;SDS011;5205;52.168;5.420;2023-10-19T10:54:56;6.63;;;1.95;;
10319;SDS011;5205;52.168;5.420;2023-10-19T10:57:28;7.10;;;2.38;;
10319;SDS011;5205;52.168;5.420;2023-10-19T11:00:00;9.25;;;2.15;;
10319;SDS011;5205;52.168;5.420;2023-10-19T11:02:29;11.85;;;2.63;;
10319;SDS011;5205;52.168;5.420;2023-10-19T11:04:56;9.65;;;2.63;;
10319;SDS011;5205;52.168;5.420;2023-10-19T11:07:23;8.93;;;1.73;;
10319;SDS011;5205;52.168;5.420;2023-10-19T11:09:50;4.68;;;2.17;;
10319;SDS011;5205;52.168;5.420;2023-10-19T11:12:17;14.07;;;2.95;;
10319;SDS011;5205;52.168;5.420;2023-10-19T11:14:53;9.60;;;2.45;;
10319;SDS011;5205;52.168;5.420;2023-10-19T11:17:20;11.05;;;2.30;;
10319;SDS011;5205;52.168;5.420;2023-10-19T11:19:53;9.93;;;2.38;;
10319;SDS011;5205;52.168;5.420;2023-10-19T11:22:21;9.80;;;2.45;;
10319;SDS011;5205;52.168;5.420;2023-10-19T11:24:49;11.20;;;2.45;;
10319;SDS011;5205;52.168;5.420;2023-10-19T11:27:21;4.82;;;1.90;;
10319;SDS011;5205;52.168;5.420;2023-10-19T11:29:55;8.88;;;2.20;;
10319;SDS011;5205;52.168;5.420;2023-10-19T11:32:23;8.20;;;1.98;;
10319;SDS011;5205;52.168;5.420;2023-10-19T11:34:51;7.90;;;2.05;;
10319;SDS011;5205;52.168;5.420;2023-10-19T11:37:18;4.88;;;2.13;;
10319;SDS011;5205;52.168;5.420;2023-10-19T11:39:45;7.10;;;1.95;;
10319;SDS011;5205;52.168;5.420;2023-10-19T11:42:13;7.15;;;2.83;;
10319;SDS011;5205;52.168;5.420;2023-10-19T11:44:40;6.28;;;1.83;;
10319;SDS011;5205;52.168;5.420;2023-10-19T11:47:09;5.80;;;1.55;;
10319;SDS011;5205;52.168;5.420;2023-10-19T11:49:36;9.77;;;2.65;;
10319;SDS011;5205;52.168;5.420;2023-10-19T11:52:04;8.70;;;2.15;;
10319;SDS011;5205;52.168;5.420;2023-10-19T11:54:32;14.65;;;1.92;;
10319;SDS011;5205;52.168;5.420;2023-10-19T11:56:59;9.10;;;2.00;;
10319;SDS011;5205;52.168;5.420;2023-10-19T11:59:27;7.43;;;1.55;;
10319;SDS011;5205;52.168;5.420;2023-10-19T12:01:54;11.23;;;3.03;;
10319;SDS011;5205;52.168;5.420;2023-10-19T12:04:25;8.50;;;1.52;;
10319;SDS011;5205;52.168;5.420;2023-10-19T12:06:52;8.52;;;2.00;;
10319;SDS011;5205;52.168;5.420;2023-10-19T12:09:20;7.43;;;1.40;;
10319;SDS011;5205;52.168;5.420;2023-10-19T12:11:49;3.97;;;1.63;;
10319;SDS011;5205;52.168;5.420;2023-10-19T12:14:19;6.55;;;1.63;;
10319;SDS011;5205;52.168;5.420;2023-10-19T12:16:46;5.05;;;1.40;;
10319;SDS011;5205;52.168;5.420;2023-10-19T12:19:13;8.07;;;2.65;;
10319;SDS011;5205;52.168;5.420;2023-10-19T12:21:43;9.02;;;1.98;;
10319;SDS011;5205;52.168;5.420;2023-10-19T12:24:10;8.13;;;1.88;;
10319;SDS011;5205;52.168;5.420;2023-10-19T12:26:37;7.93;;;1.77;;
10319;SDS011;5205;52.168;5.420;2023-10-19T12:29:05;9.32;;;1.75;;
10319;SDS011;5205;52.168;5.420;2023-10-19T12:31:36;9.18;;;2.05;;
10319;SDS011;5205;52.168;5.420;2023-10-19T12:34:04;9.02;;;2.03;;
10319;SDS011;5205;52.168;5.420;2023-10-19T12:36:32;6.85;;;1.45;;
10319;SDS011;5205;52.168;5.420;2023-10-19T12:39:02;9.70;;;2.05;;
10319;SDS011;5205;52.168;5.420;2023-10-19T12:41:32;6.07;;;1.60;;
10319;SDS011;5205;52.168;5.420;2023-10-19T12:43:59;12.25;;;2.53;;
10319;SDS011;5205;52.168;5.420;2023-10-19T12:46:28;10.43;;;2.10;;
10319;SDS011;5205;52.168;5.420;2023-10-19T12:48:56;10.05;;;2.72;;
10319;SDS011;5205;52.168;5.420;2023-10-19T12:51:24;12.57;;;3.05;;
10319;SDS011;5205;52.168;5.420;2023-10-19T12:53:51;9.65;;;2.33;;
10319;SDS011;5205;52.168;5.420;2023-10-19T12:56:20;8.65;;;2.08;;
10319;SDS011;5205;52.168;5.420;2023-10-19T12:58:49;11.27;;;2.50;;
10319;SDS011;5205;52.168;5.420;2023-10-19T13:01:17;7.10;;;1.73;;
10319;SDS011;5205;52.168;5.420;2023-10-19T13:03:46;7.00;;;2.10;;
10319;SDS011;5205;52.168;5.420;2023-10-19T13:06:16;10.80;;;2.05;;
10319;SDS011;5205;52.168;5.420;2023-10-19T13:08:44;4.78;;;1.88;;
10319;SDS011;5205;52.168;5.420;2023-10-19T13:11:12;12.13;;;2.88;;
10319;SDS011;5205;52.168;5.420;2023-10-19T13:13:41;9.60;;;2.10;;
10319;SDS011;5205;52.168;5.420;2023-10-19T13:16:08;5.47;;;2.38;;
10319;SDS011;5205;52.168;5.420;2023-10-19T13:18:35;8.70;;;2.47;;
10319;SDS011;5205;52.168;5.420;2023-10-19T13:21:05;8.85;;;2.88;;
10319;SDS011;5205;52.168;5.420;2023-10-19T13:23:36;7.88;;;2.17;;
10319;SDS011;5205;52.168;5.420;2023-10-19T13:26:04;8.60;;;2.05;;
10319;SDS011;5205;52.168;5.420;2023-10-19T13:28:44;6.43;;;1.80;;
10319;SDS011;5205;52.168;5.420;2023-10-19T13:31:12;16.27;;;2.75;;
10319;SDS011;5205;52.168;5.420;2023-10-19T13:33:40;10.02;;;2.92;;
10319;SDS011;5205;52.168;5.420;2023-10-19T13:36:09;10.10;;;2.55;;
10319;SDS011;5205;52.168;5.420;2023-10-19T13:38:37;12.27;;;2.63;;
10319;SDS011;5205;52.168;5.420;2023-10-19T13:41:05;9.48;;;3.03;;
10319;SDS011;5205;52.168;5.420;2023-10-19T13:43:34;10.52;;;2.67;;
10319;SDS011;5205;52.168;5.420;2023-10-19T13:46:03;9.45;;;3.13;;
10319;SDS011;5205;52.168;5.420;2023-10-19T13:48:30;11.32;;;2.88;;
10319;SDS011;5205;52.168;5.420;2023-10-19T13:50:58;13.63;;;3.65;;
10319;SDS011;5205;52.168;5.420;2023-10-19T13:53:37;7.97;;;2.63;;
10319;SDS011;5205;52.168;5.420;2023-10-19T13:56:06;6.50;;;2.42;;
10319;SDS011;5205;52.168;5.420;2023-10-19T13:58:34;14.48;;;3.10;;
10319;SDS011;5205;52.168;5.420;2023-10-19T14:01:05;11.77;;;3.10;;
10319;SDS011;5205;52.168;5.420;2023-10-19T14:03:33;7.60;;;2.58;;
10319;SDS011;5205;52.168;5.420;2023-10-19T14:06:02;12.82;;;3.38;;
10319;SDS011;5205;52.168;5.420;2023-10-19T14:08:30;13.02;;;3.08;;
10319;SDS011;5205;52.168;5.420;2023-10-19T14:11:00;13.82;;;3.08;;
10319;SDS011;5205;52.168;5.420;2023-10-19T14:13:28;11.75;;;2.80;;
10319;SDS011;5205;52.168;5.420;2023-10-19T14:15:55;6.20;;;2.60;;
10319;SDS011;5205;52.168;5.420;2023-10-19T14:18:23;14.60;;;2.65;;
10319;SDS011;5205;52.168;5.420;2023-10-19T14:20:51;11.50;;;2.67;;
10319;SDS011;5205;52.168;5.420;2023-10-19T14:23:18;13.68;;;3.20;;
10319;SDS011;5205;52.168;5.420;2023-10-19T14:25:46;13.50;;;3.13;;
10319;SDS011;5205;52.168;5.420;2023-10-19T14:28:15;17.27;;;3.22;;
10319;SDS011;5205;52.168;5.420;2023-10-19T14:30:42;10.43;;;2.75;;
10319;SDS011;5205;52.168;5.420;2023-10-19T14:33:10;14.88;;;3.13;;
10319;SDS011;5205;52.168;5.420;2023-10-19T14:35:38;10.50;;;2.33;;
10319;SDS011;5205;52.168;5.420;2023-10-19T14:38:07;10.80;;;2.80;;
10319;SDS011;5205;52.168;5.420;2023-10-19T14:40:34;8.07;;;2.80;;
10319;SDS011;5205;52.168;5.420;2023-10-19T14:43:01;14.55;;;3.38;;
10319;SDS011;5205;52.168;5.420;2023-10-19T14:45:29;10.88;;;3.45;;
10319;SDS011;5205;52.168;5.420;2023-10-19T14:47:58;14.45;;;3.33;;
10319;SDS011;5205;52.168;5.420;2023-10-19T14:50:28;12.75;;;3.03;;
10319;SDS011;5205;52.168;5.420;2023-10-19T14:52:56;14.68;;;3.75;;
10319;SDS011;5205;52.168;5.420;2023-10-19T14:55:24;15.73;;;3.42;;
10319;SDS011;5205;52.168;5.420;2023-10-19T14:57:51;9.07;;;3.55;;
10319;SDS011;5205;52.168;5.420;2023-10-19T15:00:20;17.88;;;3.25;;
10319;SDS011;5205;52.168;5.420;2023-10-19T15:02:51;13.68;;;3.65;;
10319;SDS011;5205;52.168;5.420;2023-10-19T15:05:20;10.65;;;2.83;;
10319;SDS011;5205;52.168;5.420;2023-10-19T15:07:48;10.13;;;2.92;;
10319;SDS011;5205;52.168;5.420;2023-10-19T15:10:19;8.95;;;2.97;;
10319;SDS011;5205;52.168;5.420;2023-10-19T15:12:46;14.15;;;3.03;;